Nearby METAR Reports

 

KORH - Worcester, Massachusetts, USA
Distance from station: NW 4mi, 7km
Updated: Sun, 17-Nov-2019 5:54pm EST
Light snow, Overcast
Light snow, Overcast
 Wind from NE
Wind: NE 9 mph , 15 km/h
Temperature: 30°F , -1°C
Wind Chill: 22°F , -6°C
Dew Point: 25°F , -4°C
Humidity: 80%
Barometer: 30.22 inHg , 1023.4 hPa
Summary: Light Snow
Clouds: Overcast
Visibility: 4 miles , 6 km
Cloud details: Overcast 1000 ft
2019/11/17 22:54 KORH 172254Z 04008KT 4SM -SN OVC010 M01/M04 A3022 RMK AO2 SLP248 P0000 T10111039
KBOS - Boston, Massachusetts, USA
Distance from station: ENE 42mi, 68km
Updated: Sun, 17-Nov-2019 5:54pm EST
Overcast
Overcast
 Wind from ENE
Wind: ENE 17 mph , 28 km/h
Temperature: 43°F , 6°C
Wind Chill: 35°F , 2°C
Dew Point: 28°F , -2°C
Humidity: 57%
Barometer: 30.27 inHg , 1025.1 hPa
Clouds: Overcast
Visibility: 10 miles , 16 km
Cloud details: Overcast 3700 ft
2019/11/17 22:54 KBOS 172254Z 07015KT 10SM OVC037 06/M02 A3027 RMK AO2 WSHFT 2222 SLP248 T00611017
 
KCQX - Chatham, Massachusetts, USA
Distance from station: SE 102mi, 164km
Updated: Sun, 17-Nov-2019 6:27pm EST
Overcast
Overcast
 Wind from ENE
Wind: ENE 17 mph , 28 km/h, Gust: 25 mph , 41 km/h
Temperature: 45°F , 7°C
Wind Chill: 38°F , 3°C
Dew Point: 34°F , 1°C
Humidity: 66%
Barometer: 30.20 inHg , 1022.7 hPa
Clouds: Overcast
Visibility: 10 miles , 16 km
Cloud details: Overcast 3200 ft
2019/11/17 23:27 KCQX 172327Z AUTO 07015G22KT 10SM OVC032 07/01 A3020 RMK AO2 T00720006
KMVY - Marthas Vineyard, Massachusetts, USA
Distance from station: SE 84mi, 135km
Updated: Sun, 17-Nov-2019 5:53pm EST
Overcast
Overcast
 Wind from ENE
Wind: ENE 25 mph , 41 km/h, Gust: 33 mph , 54 km/h
Temperature: 45°F , 7°C
Wind Chill: 36°F , 2°C
Dew Point: 34°F , 1°C
Humidity: 66%
Barometer: 30.17 inHg , 1021.7 hPa
Clouds: Overcast
Visibility: 10 miles , 16 km
Cloud details: Few Clouds 2500 ft
Overcast 4100 ft
2019/11/17 22:53 KMVY 172253Z AUTO 06022G29KT 10SM FEW025 OVC041 07/01 A3017 RMK AO2 PK WND 06029/2253 SLP217 T00670006
 
KPVC - Provincetown, Massachusetts, USA
Distance from station: NNW 85mi, 136km
Updated: Sun, 17-Nov-2019 5:56pm EST
Overcast
Overcast
 Wind from E
Wind: E 15 mph , 24 km/h, Gust: 21 mph , 33 km/h
Temperature: 43°F , 6°C
Wind Chill: 36°F , 2°C
Dew Point: 30°F , -1°C
Humidity: 61%
Barometer: 30.25 inHg , 1024.4 hPa
Clouds: Overcast
Visibility: 10 miles , 16 km
Cloud details: Overcast 2900 ft
2019/11/17 22:56 KPVC 172256Z AUTO 08013G18KT 10SM OVC029 06/M01 A3025 RMK AO2 SLP242 T00561006
KAQW - Savoy, Massachusetts, USA
Distance from station: NNW 66mi, 106km
Updated: Sun, 17-Nov-2019 5:52pm EST
Overcast
Overcast
 Wind from varies
Wind: varies 3 mph , 6 km/h
Temperature: 34°F , 1°C
Dew Point: 21°F , -6°C
Humidity: 60%
Barometer: 30.23 inHg , 1023.7 hPa
Clouds: Overcast
Visibility: 10 miles , 16 km
Cloud details: Overcast 2900 ft
2019/11/17 22:52 KAQW 172252Z AUTO VRB03KT 10SM OVC029 01/M06 A3023 RMK AO2 SLP249 T00111056 TSNO
 
KIZG - Fryeburg, Maine, USA
Distance from station: NNE 133mi, 214km
Updated: Sun, 17-Nov-2019 5:54pm EST
Partly cloudy
Partly cloudy
 Wind from calm
Wind: Calm
Temperature: 19°F , -7°C
Dew Point: 10°F , -12°C
Humidity: 68%
Barometer: 30.34 inHg , 1027.4 hPa
Clouds: Partly cloudy
Visibility: 10 miles , 16 km
Cloud details: Partly cloudy 3100 ft
2019/11/17 22:54 KIZG 172254Z AUTO 00000KT 10SM SCT031 M07/M12 A3034 RMK AO2 SLP286 T10671117
KMWN - Mt Washington, New Hampshire, USA
Distance from station: NNE 146mi, 234km
Updated: Sun, 17-Nov-2019 5:54pm EST

 Wind from SE
Wind: SE 17 mph , 28 km/h
Visibility: 130 miles , 208 km
2019/11/17 22:54 KMWN 172254Z 14015KT 130SM SCT/// FEW180 SCT220 M04/M26 RMK TPS LWR SCT040
 
KBML - Berlin, New Hampshire, USA
Distance from station: NNE 160mi, 257km
Updated: Sun, 17-Nov-2019 5:52pm EST
Clear
Clear
 Wind from calm
Wind: Calm
Temperature: 18°F , -8°C
Dew Point: 9°F , -13°C
Humidity: 68%
Barometer: 30.27 inHg , 1025.1 hPa
Clouds: Clear
Visibility: 10 miles , 16 km
2019/11/17 22:52 KBML 172252Z AUTO 00000KT 10SM CLR M08/M13 A3027 RMK AO2 SLP279 T10781128